Sea Hope — YJUA2 — position and weather

sailwx.info

Track history (hours):
 
Tides and Currents Weather Stations Pressure Air Temp Water Temp Dewpoint Dewpoint Depression Visibility Wind Speed Wind Dir Waves Ship Positions

Sea Hope

Last reported at 2018-Feb-04 09:32 UTC. Time now 2018-Feb-18 07:19 UTC.
Position N 46°11' W 125°03'.
Warning: this ship's position is 13 days out of date.

Length 181 m; draft 10.9 m.

Type: Cargo ship. MMSI: 577297000.

Date/timePositionNaut miles runAvg speedWind from/ knotsBaromVisibWave heightAir tempDewpointWater temp
2018-Feb-04 09:32N 46°11' W 125°03'610.6
2018-Feb-04 09:00N 46°11' W 124°55'510.6
2018-Feb-04 08:31N 46°11' W 124°47'510.3
2018-Feb-04 08:00N 46°11' W 124°40'510.4
2018-Feb-04 07:30N 46°11' W 124°32'510.2
2018-Feb-04 07:00N 46°11' W 124°25'510.2
2018-Feb-04 06:30N 46°11' W 124°18'510.4
2018-Feb-04 06:01N 46°10' W 124°10'5 8.8
2018-Feb-04 05:30N 46°14' W 124°07'612.0
2018-Feb-04 05:01N 46°14' W 123°58'611.2
2018-Feb-04 04:30N 46°12' W 123°50'612.3
2018-Feb-04 04:00N 46°14' W 123°42'814.3
2018-Feb-04 03:28N 46°16' W 123°31'511.3
2018-Feb-04 03:00N 46°13' W 123°25'510.4
2018-Feb-04 02:30N 46°09' W 123°21'713.8
2018-Feb-04 02:00N 46°11' W 123°12'612.7
2018-Feb-04 01:31N 46°09' W 123°03'612.1
2018-Feb-04 01:00N 46°06' W 122°56'510.2
2018-Feb-04 00:31N 46°01' W 122°52'611.5
2018-Feb-03 23:59N 45°56' W 122°48'613.0
2018-Feb-03 23:31N 45°50' W 122°48'713.8
2018-Feb-03 23:00N 45°43' W 122°46'5 9.4
2018-Feb-03 22:30N 45°38' W 122°47'4 7.9
2018-Feb-03 22:00N 45°35' W 122°45'4 7.5
2018-Feb-03 21:30N 45°32' W 122°41'1 1.1
2018-Feb-03 21:00N 45°32' W 122°40'0 0.0
2018-Feb-03 20:30N 45°32' W 122°40'0 0.0
2018-Feb-03 20:00N 45°32' W 122°40'0 0.0
2018-Feb-03 18:30N 45°32' W 122°40'0 0.0
2018-Feb-03 18:00N 45°32' W 122°40'0 0.0
2018-Feb-03 17:30N 45°32' W 122°40'0 0.0
2018-Feb-03 17:00N 45°32' W 122°40'0 0.0
2018-Feb-03 16:00N 45°32' W 122°40'0 0.0
2018-Feb-03 15:30N 45°32' W 122°40'0 0.0
2018-Feb-03 15:00N 45°32' W 122°40'0 0.0
2018-Feb-03 14:30N 45°32' W 122°40'0 0.0
2018-Feb-03 14:00N 45°32' W 122°40'0 0.0
2018-Feb-03 13:30N 45°32' W 122°40'0 0.0
2018-Feb-03 13:00N 45°32' W 122°40'0 0.0
2018-Feb-03 12:30N 45°32' W 122°40'0 0.0
2018-Feb-03 12:00N 45°32' W 122°40'0 0.0
2018-Feb-03 11:30N 45°32' W 122°40'0 0.0
2018-Feb-03 11:00N 45°32' W 122°40'0 0.0
2018-Feb-03 10:30N 45°32' W 122°40'0 0.0
2018-Feb-03 10:00N 45°32' W 122°40'0 0.0
2018-Feb-03 09:30N 45°32' W 122°40'0 0.0
2018-Feb-03 09:00N 45°32' W 122°40'0 0.0
2018-Feb-03 08:30N 45°32' W 122°40'0 0.0
2018-Feb-03 08:00N 45°32' W 122°40'0 0.0
2018-Feb-03 06:30N 45°32' W 122°40'0 0.0
2018-Feb-03 06:00N 45°32' W 122°40'0 0.0
2018-Feb-03 05:30N 45°32' W 122°40'0 0.0
2018-Feb-03 05:00N 45°32' W 122°40'0 0.0
2018-Feb-03 04:00N 45°32' W 122°40'0 0.0
2018-Feb-03 03:30N 45°32' W 122°40'0 0.0
2018-Feb-03 02:00N 45°32' W 122°40'0 0.0
2018-Feb-03 01:30N 45°32' W 122°40'0 0.0
2018-Feb-03 01:00N 45°32' W 122°40'0 0.0
2018-Feb-03 00:30N 45°32' W 122°40'0 0.0
2018-Feb-03 00:00N 45°32' W 122°40'0 0.0
2018-Feb-02 23:30N 45°32' W 122°40'0 0.0
2018-Feb-02 23:00N 45°32' W 122°40'0 0.0
2018-Feb-02 22:30N 45°32' W 122°40'0 0.0
2018-Feb-02 22:00N 45°32' W 122°40'0 0.0
2018-Feb-02 21:30N 45°32' W 122°40'0 0.0
2018-Feb-02 21:00N 45°32' W 122°40'0 0.0
2018-Feb-02 20:30N 45°32' W 122°40'0 0.0
2018-Feb-02 20:00N 45°32' W 122°40'0 0.0
2018-Feb-02 19:00N 45°32' W 122°40'0 0.0
2018-Feb-02 18:30N 45°32' W 122°40'0 0.0
2018-Feb-02 18:00N 45°32' W 122°40'0 0.0
2018-Feb-02 17:30N 45°32' W 122°40'0 0.0
2018-Feb-02 17:00N 45°32' W 122°40'0 0.0
2018-Feb-02 16:30N 45°32' W 122°40'0 0.0
2018-Feb-02 15:30N 45°32' W 122°40'0 0.0
2018-Feb-02 14:30N 45°32' W 122°40'0 0.0
2018-Feb-02 14:00N 45°32' W 122°40'0 0.0
2018-Feb-02 13:30N 45°32' W 122°40'0 0.0
2018-Feb-02 13:00N 45°32' W 122°40'0 0.0
2018-Feb-02 12:30N 45°32' W 122°40'0 0.0
2018-Feb-02 12:00N 45°32' W 122°40'0 0.0
2018-Feb-02 11:27N 45°32' W 122°40'0 0.0
2018-Feb-02 11:00N 45°32' W 122°40'0 0.0
2018-Feb-02 10:30N 45°32' W 122°40'0 0.0
2018-Feb-02 10:00N 45°32' W 122°40'0 0.0
2018-Feb-02 09:30N 45°32' W 122°40'0 0.0
2018-Feb-02 09:00N 45°32' W 122°40'0 0.0
2018-Feb-02 08:30N 45°32' W 122°40'0 0.0
2018-Feb-02 08:00N 45°32' W 122°40'0 0.0
2018-Feb-02 07:30N 45°32' W 122°40'0 0.0
2018-Feb-02 07:00N 45°32' W 122°40'0 0.0
2018-Feb-02 06:30N 45°32' W 122°40'0 0.0
2018-Feb-02 06:00N 45°32' W 122°40'0 0.0
2018-Feb-02 05:30N 45°32' W 122°40'0 0.0
2018-Feb-02 05:00N 45°32' W 122°40'0 0.0
2018-Feb-02 04:30N 45°32' W 122°40'0 0.0
2018-Feb-02 04:00N 45°32' W 122°40'0 0.0
2018-Feb-02 03:30N 45°32' W 122°40'0 0.0
2018-Feb-02 03:00N 45°32' W 122°40'0 0.0
2018-Feb-02 02:30N 45°32' W 122°40'0 0.0
2018-Feb-02 02:00N 45°32' W 122°40'0 0.0
2018-Feb-02 01:30N 45°32' W 122°40'0 0.0
2018-Feb-02 01:00N 45°32' W 122°40'0 0.0
2018-Feb-02 00:30N 45°32' W 122°40'0 0.0
2018-Feb-02 00:00N 45°32' W 122°40'0 0.0
2018-Feb-01 23:30N 45°32' W 122°40'0 0.0
2018-Feb-01 23:00N 45°32' W 122°40'0 0.0
2018-Feb-01 22:00N 45°32' W 122°40'0 0.0
2018-Feb-01 21:30N 45°32' W 122°40'0 0.0
2018-Feb-01 19:30N 45°32' W 122°40'0 0.0
2018-Feb-01 19:00N 45°32' W 122°40'0 0.0
2018-Feb-01 18:30N 45°32' W 122°40'0 0.0
2018-Feb-01 18:00N 45°32' W 122°40'0 0.0
2018-Feb-01 17:30N 45°32' W 122°40'0 0.0
2018-Feb-01 17:00N 45°32' W 122°40'0 0.0
2018-Feb-01 16:30N 45°32' W 122°40'0 0.0
2018-Feb-01 16:00N 45°32' W 122°40'0 0.0
2018-Feb-01 15:30N 45°32' W 122°40'0 0.0
2018-Feb-01 15:00N 45°32' W 122°40'0 0.0
2018-Feb-01 13:30N 45°32' W 122°40'0 0.0
2018-Feb-01 13:00N 45°32' W 122°40'0 0.0
2018-Feb-01 12:30N 45°32' W 122°40'0 0.0
2018-Feb-01 12:00N 45°32' W 122°40'0 0.0
2018-Feb-01 11:00N 45°32' W 122°40'0 0.0
2018-Feb-01 10:30N 45°32' W 122°40'0 0.0
2018-Feb-01 10:00N 45°32' W 122°40'0 0.0
2018-Feb-01 09:30N 45°32' W 122°40'0 0.0
2018-Feb-01 09:00N 45°32' W 122°40'0 0.0
2018-Feb-01 08:30N 45°32' W 122°40'0 0.0
2018-Feb-01 07:30N 45°32' W 122°40'0 0.0
2018-Feb-01 07:00N 45°32' W 122°40'0 0.0
2018-Feb-01 06:30N 45°32' W 122°40'0 0.0
2018-Feb-01 06:00N 45°32' W 122°40'0 0.0
2018-Feb-01 05:30N 45°32' W 122°40'0 0.0
2018-Feb-01 05:00N 45°32' W 122°40'0 0.0
2018-Feb-01 04:30N 45°32' W 122°40'0 0.0
2018-Feb-01 04:00N 45°32' W 122°40'0 0.0
2018-Feb-01 03:00N 45°32' W 122°40'0 0.0
2018-Feb-01 02:30N 45°32' W 122°40'0 0.0
2018-Feb-01 02:00N 45°32' W 122°40'0 0.0
2018-Feb-01 01:30N 45°32' W 122°40'0 0.0
2018-Feb-01 01:00N 45°32' W 122°40'0 0.0
2018-Feb-01 00:30N 45°32' W 122°40'0 0.0
2018-Feb-01 00:00N 45°32' W 122°40'0 0.0
2018-Jan-31 23:00N 45°32' W 122°40'0 0.0
2018-Jan-31 22:30N 45°32' W 122°40'0 0.0
2018-Jan-31 21:00N 45°32' W 122°40'0 0.0
2018-Jan-31 20:30N 45°32' W 122°40'0 0.0
2018-Jan-31 20:00N 45°32' W 122°40'0 0.0
2018-Jan-31 19:30N 45°32' W 122°40'0 0.0
2018-Jan-31 19:00N 45°32' W 122°40'0 0.0
2018-Jan-31 18:30N 45°32' W 122°40'0 0.0
2018-Jan-31 18:00N 45°32' W 122°40'0 0.0
2018-Jan-31 17:30N 45°32' W 122°40'0 0.0
2018-Jan-31 17:00N 45°32' W 122°40'0 0.0
2018-Jan-31 16:30N 45°32' W 122°40'0 0.0
2018-Jan-31 16:00N 45°32' W 122°40'0 0.0
2018-Jan-31 15:30N 45°32' W 122°40'0 0.0
2018-Jan-31 15:00N 45°32' W 122°40'0 0.0
2018-Jan-31 14:30N 45°32' W 122°40'0 0.0
2018-Jan-31 13:00N 45°32' W 122°40'0 0.0
2018-Jan-31 12:30N 45°32' W 122°40'0 0.0
2018-Jan-31 12:00N 45°32' W 122°40'0 0.0
2018-Jan-31 11:30N 45°32' W 122°40'0 0.0
2018-Jan-31 11:00N 45°32' W 122°40'0 0.0
2018-Jan-31 10:30N 45°32' W 122°40'0 0.0
2018-Jan-31 10:00N 45°32' W 122°40'0 0.0
2018-Jan-31 09:30N 45°32' W 122°40'0 0.0
2018-Jan-31 09:00N 45°32' W 122°40'0 0.0
2018-Jan-31 08:30N 45°32' W 122°40'0 0.0
2018-Jan-31 08:00N 45°32' W 122°40'0 0.0
2018-Jan-31 07:30N 45°32' W 122°40'0 0.0
2018-Jan-31 07:00N 45°32' W 122°40'0 0.0
2018-Jan-31 06:30N 45°32' W 122°40'0 0.0
2018-Jan-31 06:00N 45°32' W 122°40'0 0.0
2018-Jan-31 05:30N 45°32' W 122°40'0 0.0
2018-Jan-31 05:00N 45°32' W 122°40'0 0.0
2018-Jan-31 04:30N 45°32' W 122°40'0 0.0
2018-Jan-31 04:00N 45°32' W 122°40'0 0.0
2018-Jan-31 03:30N 45°32' W 122°40'0 0.0
2018-Jan-31 03:00N 45°32' W 122°40'0 0.0
2018-Jan-31 02:30N 45°32' W 122°40'0 0.0
2018-Jan-31 02:00N 45°32' W 122°40'0 0.0
2018-Jan-31 01:30N 45°32' W 122°40'0 0.0
2018-Jan-31 01:00N 45°32' W 122°40'0 0.0
2018-Jan-31 00:00N 45°32' W 122°40'0 0.0
2018-Jan-30 23:30N 45°32' W 122°40'0 0.0
2018-Jan-30 23:00N 45°32' W 122°40'0 0.0
2018-Jan-30 22:30N 45°32' W 122°40'0 0.0
2018-Jan-30 21:30N 45°32' W 122°40'0 0.0
2018-Jan-30 21:00N 45°32' W 122°40'0 0.0
2018-Jan-30 20:30N 45°32' W 122°40'0 0.0
2018-Jan-30 20:00N 45°32' W 122°40'0 0.0
2018-Jan-30 19:30N 45°32' W 122°40'0 0.0
2018-Jan-30 19:00N 45°32' W 122°40'0 0.0
2018-Jan-30 18:30N 45°32' W 122°40'0 0.0
2018-Jan-30 18:00N 45°32' W 122°40'0 0.0
2018-Jan-30 17:30N 45°32' W 122°40'0 0.0
2018-Jan-30 17:00N 45°32' W 122°40'0 0.0
2018-Jan-30 16:30N 45°32' W 122°40'0 0.0
2018-Jan-30 16:00N 45°32' W 122°40'0 0.0
2018-Jan-30 15:30N 45°32' W 122°40'0 0.0
2018-Jan-30 15:00N 45°32' W 122°40'0 0.0
2018-Jan-30 14:30N 45°32' W 122°40'0 0.0
2018-Jan-30 13:30N 45°32' W 122°40'0 0.0
2018-Jan-30 13:00N 45°32' W 122°40'0 0.0
2018-Jan-30 12:30N 45°32' W 122°40'0 0.0
2018-Jan-30 12:00N 45°32' W 122°40'0 0.0
2018-Jan-30 11:30N 45°32' W 122°40'0 0.0
2018-Jan-30 10:30N 45°32' W 122°40'0 0.0
2018-Jan-30 09:30N 45°32' W 122°40'0 0.0
2018-Jan-30 09:00N 45°32' W 122°40'0 0.0
2018-Jan-30 08:30N 45°32' W 122°40'0 0.0
2018-Jan-30 08:00N 45°32' W 122°40'0 0.0
2018-Jan-30 07:30N 45°32' W 122°40'0 0.0
2018-Jan-30 07:00N 45°32' W 122°40'0 0.0
2018-Jan-30 06:30N 45°32' W 122°40'0 0.0
2018-Jan-30 06:00N 45°32' W 122°40'0 0.0
2018-Jan-30 05:30N 45°32' W 122°40'0 0.0
2018-Jan-30 05:00N 45°32' W 122°40'0 0.0
2018-Jan-30 04:30N 45°32' W 122°40'0 0.0
2018-Jan-30 04:00N 45°32' W 122°40'0 0.0
2018-Jan-30 03:30N 45°32' W 122°40'0 0.0
2018-Jan-30 03:00N 45°32' W 122°40'0 0.0
2018-Jan-30 02:30N 45°32' W 122°40'0 0.0
2018-Jan-30 02:00N 45°32' W 122°40'0 0.0
2018-Jan-30 01:30N 45°32' W 122°40'0 0.0
2018-Jan-30 01:00N 45°32' W 122°40'0 0.0
2018-Jan-30 00:30N 45°32' W 122°40'0 0.0
2018-Jan-30 00:00N 45°32' W 122°40'0 0.0
2018-Jan-29 23:30N 45°32' W 122°40'0 0.0
2018-Jan-29 23:00N 45°32' W 122°40'0 0.0
2018-Jan-29 22:30N 45°32' W 122°40'0 0.0
2018-Jan-29 22:00N 45°32' W 122°40'0 0.0
2018-Jan-29 21:30N 45°32' W 122°40'0 0.0
2018-Jan-29 21:00N 45°32' W 122°40'0 0.0
2018-Jan-29 20:30N 45°32' W 122°40'0 0.0
2018-Jan-29 20:00N 45°32' W 122°40'0 0.0
2018-Jan-29 19:30N 45°32' W 122°40'0 0.0
2018-Jan-29 19:00N 45°32' W 122°40'0 0.0
2018-Jan-29 18:30N 45°32' W 122°40'0 0.0
2018-Jan-29 18:00N 45°32' W 122°40'0 0.0
2018-Jan-29 17:30N 45°32' W 122°40'0 0.0
2018-Jan-29 17:00N 45°32' W 122°40'0 0.0
2018-Jan-29 16:30N 45°32' W 122°40'0 0.0
2018-Jan-29 16:00N 45°32' W 122°40'0 0.0
2018-Jan-29 15:30N 45°32' W 122°40'0 0.0
2018-Jan-29 15:00N 45°32' W 122°40'0 0.0
2018-Jan-29 14:30N 45°32' W 122°40'0 0.0
2018-Jan-29 14:00N 45°32' W 122°40'0 0.0
2018-Jan-29 13:30N 45°32' W 122°40'0 0.0
2018-Jan-29 13:00N 45°32' W 122°40'0 0.0
2018-Jan-29 12:30N 45°32' W 122°40'0 0.0
2018-Jan-29 12:00N 45°32' W 122°40'0 0.0
2018-Jan-29 11:27N 45°32' W 122°40'0 0.0
2018-Jan-29 11:00N 45°32' W 122°40'0 0.0
2018-Jan-29 10:30N 45°32' W 122°40'0 0.0
2018-Jan-29 10:00N 45°32' W 122°40'0 0.0
2018-Jan-29 09:30N 45°32' W 122°40'0 0.0
2018-Jan-29 09:00N 45°32' W 122°40'0 0.0
2018-Jan-29 08:30N 45°32' W 122°40'0 0.0
2018-Jan-29 08:00N 45°32' W 122°40'0 0.0
2018-Jan-29 07:30N 45°32' W 122°40'0 0.0
2018-Jan-29 07:00N 45°32' W 122°40'0 0.0
2018-Jan-29 06:30N 45°32' W 122°40'0 0.0
2018-Jan-29 06:00N 45°32' W 122°40'0 0.0
2018-Jan-29 05:30N 45°32' W 122°40'0 0.0
2018-Jan-29 05:00N 45°32' W 122°40'0 0.6
2018-Jan-29 04:30N 45°32' W 122°40'3 5.9
2018-Jan-29 04:00N 45°34' W 122°44'4 7.8
2018-Jan-29 03:30N 45°37' W 122°47'4 7.3
2018-Jan-29 03:00N 45°40' W 122°46'1 1.4
2018-Jan-29 02:30N 45°41' W 122°46'0 0.0
2018-Jan-29 01:57N 45°41' W 122°46'0 0.0
2018-Jan-29 01:30N 45°41' W 122°46'0 0.0
2018-Jan-29 01:00N 45°41' W 122°46'0 0.0
2018-Jan-29 00:30N 45°41' W 122°46'0 0.0
2018-Jan-29 00:00N 45°41' W 122°46'0 0.0
2018-Jan-28 23:30N 45°41' W 122°46'0 0.0
2018-Jan-28 23:00N 45°41' W 122°46'0 0.0
2018-Jan-28 22:30N 45°41' W 122°46'0 0.0
2018-Jan-28 22:00N 45°41' W 122°46'0 0.0
2018-Jan-28 21:30N 45°41' W 122°46'0 0.0
2018-Jan-28 21:00N 45°41' W 122°46'0 0.0
2018-Jan-28 20:30N 45°41' W 122°46'0 0.0
2018-Jan-28 20:00N 45°41' W 122°46'0 0.0
2018-Jan-28 19:30N 45°41' W 122°46'0 0.0
2018-Jan-28 19:00N 45°41' W 122°46'0 0.0
2018-Jan-28 18:30N 45°41' W 122°46'0 0.0
2018-Jan-28 18:00N 45°41' W 122°46'0 0.0
2018-Jan-28 17:30N 45°41' W 122°46'0 0.0
2018-Jan-28 17:00N 45°41' W 122°46'0 0.0
2018-Jan-28 16:30N 45°41' W 122°46'0 0.0
2018-Jan-28 16:00N 45°41' W 122°46'0 0.0
2018-Jan-28 15:30N 45°41' W 122°46'0 0.0
2018-Jan-28 15:00N 45°41' W 122°46'0 0.0
2018-Jan-28 14:30N 45°41' W 122°46'0 0.0
2018-Jan-28 14:00N 45°41' W 122°46'0 0.0
2018-Jan-28 13:30N 45°41' W 122°46'0 0.0
2018-Jan-28 13:00N 45°41' W 122°46'0 0.0
2018-Jan-28 12:30N 45°41' W 122°46'0 0.0
2018-Jan-28 12:00N 45°41' W 122°46'0 0.0
2018-Jan-28 11:30N 45°41' W 122°46'0 0.0
2018-Jan-28 11:00N 45°41' W 122°46'0 0.0
2018-Jan-28 10:30N 45°41' W 122°46'0 0.0
2018-Jan-28 09:57N 45°41' W 122°46'0 0.0
2018-Jan-28 09:30N 45°41' W 122°46'0 0.0
2018-Jan-28 09:00N 45°41' W 122°46'0 0.0
2018-Jan-28 08:30N 45°41' W 122°46'0 0.0
2018-Jan-28 08:00N 45°41' W 122°46'0 0.0
2018-Jan-28 07:30N 45°41' W 122°46'0 0.0
2018-Jan-28 07:00N 45°41' W 122°46'0 0.0
2018-Jan-28 06:30N 45°41' W 122°46'0 0.0
2018-Jan-28 06:00N 45°41' W 122°46'0 0.0
2018-Jan-28 05:30N 45°41' W 122°46'0 0.0
2018-Jan-28 05:00N 45°41' W 122°46'0 0.0
2018-Jan-28 04:30N 45°41' W 122°46'0 0.0
2018-Jan-28 04:00N 45°41' W 122°46'0 0.0
2018-Jan-28 03:30N 45°41' W 122°46'0 0.0
2018-Jan-28 03:00N 45°41' W 122°46'0 0.0
2018-Jan-28 02:30N 45°41' W 122°46'0 0.0
2018-Jan-28 02:00N 45°41' W 122°46'0 0.0
2018-Jan-28 01:30N 45°41' W 122°46'0 0.0
2018-Jan-28 01:00N 45°41' W 122°46'0 0.0
2018-Jan-28 00:30N 45°41' W 122°46'0 0.0
2018-Jan-28 00:00N 45°41' W 122°46'0 0.0
2018-Jan-27 23:30N 45°41' W 122°46'0 0.0
2018-Jan-27 23:00N 45°41' W 122°46'0 0.0
2018-Jan-27 22:30N 45°41' W 122°46'0 0.0
2018-Jan-27 22:00N 45°41' W 122°46'0 0.0
2018-Jan-27 21:30N 45°41' W 122°46'0 0.0
2018-Jan-27 21:00N 45°41' W 122°46'0 0.0
2018-Jan-27 20:30N 45°41' W 122°46'0 0.0
2018-Jan-27 20:00N 45°41' W 122°46'0 0.0
2018-Jan-27 19:30N 45°41' W 122°46'0 0.0
2018-Jan-27 19:00N 45°41' W 122°46'0 0.0
2018-Jan-27 18:30N 45°41' W 122°46'0 0.0
2018-Jan-27 18:00N 45°41' W 122°46'0 0.0
2018-Jan-27 17:30N 45°41' W 122°46'0 0.0
2018-Jan-27 17:00N 45°41' W 122°46'0 0.0
2018-Jan-27 16:30N 45°41' W 122°46'0 0.0
2018-Jan-27 16:00N 45°41' W 122°46'0 0.0
2018-Jan-27 15:30N 45°41' W 122°46'0 0.0
2018-Jan-27 15:00N 45°41' W 122°46'0 0.0
2018-Jan-27 14:30N 45°41' W 122°46'0 0.0
2018-Jan-27 14:00N 45°41' W 122°46'0 0.0
2018-Jan-27 13:30N 45°41' W 122°46'0 0.0
2018-Jan-27 13:00N 45°41' W 122°46'0 0.0
2018-Jan-27 12:30N 45°41' W 122°46'0 0.0
2018-Jan-27 12:00N 45°41' W 122°46'0 0.0
2018-Jan-27 11:30N 45°41' W 122°46'0 0.0
2018-Jan-27 11:00N 45°41' W 122°46'0 0.0
2018-Jan-27 10:30N 45°41' W 122°46'0 0.0
2018-Jan-27 10:00N 45°41' W 122°46'0 0.0
2018-Jan-27 09:30N 45°41' W 122°46'0 0.9
2018-Jan-27 09:00N 45°42' W 122°46'4 7.4
2018-Jan-27 08:30N 45°45' W 122°46'511.0
2018-Jan-27 08:00N 45°51' W 122°47'511.0
2018-Jan-27 07:30N 45°56' W 122°48'510.9
2018-Jan-27 07:00N 46°01' W 122°52'5 9.4
2018-Jan-27 06:30N 46°05' W 122°55'510.2
2018-Jan-27 06:00N 46°08' W 123°01'611.5
2018-Jan-27 05:30N 46°11' W 123°08'611.3
2018-Jan-27 05:00N 46°09' W 123°15'611.5
2018-Jan-27 04:30N 46°09' W 123°24'811.1
2018-Jan-27 03:47N 46°16' W 123°29'412.7
2018-Jan-27 03:31N 46°15' W 123°34'612.7
2018-Jan-27 03:00N 46°14' W 123°43'611.1
2018-Jan-27 02:31N 46°12' W 123°50'911.7
2018-Jan-27 01:46N 46°15' W 124°01'312.2
2018-Jan-27 01:31N 46°15' W 124°06'612.5
2018-Jan-27 01:00N 46°12' W 124°14'4 8.5
2018-Jan-27 00:30N 46°11' W 124°20'710.7
2018-Jan-26 23:53N 46°11' W 124°29'512.1
2018-Jan-26 23:30N 46°11' W 124°36'612.0
2018-Jan-26 23:00N 46°11' W 124°45'612.1
2018-Jan-26 22:30N 46°11' W 124°53'712.3
2018-Jan-26 21:57N 46°11' W 125°03'512.2
2018-Jan-26 21:30N 46°11' W 125°11'612.1
2018-Jan-26 21:00N 46°11' W 125°20'612.1
2018-Jan-26 20:30N 46°12' W 125°28'611.9
2018-Jan-26 20:00N 46°12' W 125°37'  
Track history (hours):
 
Tides and Currents Weather Stations Pressure Air Temp Water Temp Dewpoint Dewpoint Depression Visibility Wind Speed Wind Dir Waves Ship Positions

Sea Hope

Last reported at 2018-Feb-04 09:32 UTC. Time now 2018-Feb-18 07:19 UTC.
Position N 46°11' W 125°03'.
Warning: this ship's position is 13 days out of date.

Length 181 m; draft 10.9 m.

Type: Cargo ship. MMSI: 577297000.

Date/timePositionNaut miles runAvg speedWind from/ knotsBaromVisibWave heightAir tempDewpointWater temp
2018-Feb-04 09:32N 46°11' W 125°03'610.6
2018-Feb-04 09:00N 46°11' W 124°55'510.6
2018-Feb-04 08:31N 46°11' W 124°47'510.3
2018-Feb-04 08:00N 46°11' W 124°40'510.4
2018-Feb-04 07:30N 46°11' W 124°32'510.2
2018-Feb-04 07:00N 46°11' W 124°25'510.2
2018-Feb-04 06:30N 46°11' W 124°18'510.4
2018-Feb-04 06:01N 46°10' W 124°10'5 8.8
2018-Feb-04 05:30N 46°14' W 124°07'612.0
2018-Feb-04 05:01N 46°14' W 123°58'611.2
2018-Feb-04 04:30N 46°12' W 123°50'612.3
2018-Feb-04 04:00N 46°14' W 123°42'814.3
2018-Feb-04 03:28N 46°16' W 123°31'511.3
2018-Feb-04 03:00N 46°13' W 123°25'510.4
2018-Feb-04 02:30N 46°09' W 123°21'713.8
2018-Feb-04 02:00N 46°11' W 123°12'612.7
2018-Feb-04 01:31N 46°09' W 123°03'612.1
2018-Feb-04 01:00N 46°06' W 122°56'510.2
2018-Feb-04 00:31N 46°01' W 122°52'611.5
2018-Feb-03 23:59N 45°56' W 122°48'613.0
2018-Feb-03 23:31N 45°50' W 122°48'713.8
2018-Feb-03 23:00N 45°43' W 122°46'5 9.4
2018-Feb-03 22:30N 45°38' W 122°47'4 7.9
2018-Feb-03 22:00N 45°35' W 122°45'4 7.5
2018-Feb-03 21:30N 45°32' W 122°41'1 1.1
2018-Feb-03 21:00N 45°32' W 122°40'0 0.0
2018-Feb-03 20:30N 45°32' W 122°40'0 0.0
2018-Feb-03 20:00N 45°32' W 122°40'0 0.0
2018-Feb-03 18:30N 45°32' W 122°40'0 0.0
2018-Feb-03 18:00N 45°32' W 122°40'0 0.0
2018-Feb-03 17:30N 45°32' W 122°40'0 0.0
2018-Feb-03 17:00N 45°32' W 122°40'0 0.0
2018-Feb-03 16:00N 45°32' W 122°40'0 0.0
2018-Feb-03 15:30N 45°32' W 122°40'0 0.0
2018-Feb-03 15:00N 45°32' W 122°40'0 0.0
2018-Feb-03 14:30N 45°32' W 122°40'0 0.0
2018-Feb-03 14:00N 45°32' W 122°40'0 0.0
2018-Feb-03 13:30N 45°32' W 122°40'0 0.0
2018-Feb-03 13:00N 45°32' W 122°40'0 0.0
2018-Feb-03 12:30N 45°32' W 122°40'0 0.0
2018-Feb-03 12:00N 45°32' W 122°40'0 0.0
2018-Feb-03 11:30N 45°32' W 122°40'0 0.0
2018-Feb-03 11:00N 45°32' W 122°40'0 0.0
2018-Feb-03 10:30N 45°32' W 122°40'0 0.0
2018-Feb-03 10:00N 45°32' W 122°40'0 0.0
2018-Feb-03 09:30N 45°32' W 122°40'0 0.0
2018-Feb-03 09:00N 45°32' W 122°40'0 0.0
2018-Feb-03 08:30N 45°32' W 122°40'0 0.0
2018-Feb-03 08:00N 45°32' W 122°40'0 0.0
2018-Feb-03 06:30N 45°32' W 122°40'0 0.0
2018-Feb-03 06:00N 45°32' W 122°40'0 0.0
2018-Feb-03 05:30N 45°32' W 122°40'0 0.0
2018-Feb-03 05:00N 45°32' W 122°40'0 0.0
2018-Feb-03 04:00N 45°32' W 122°40'0 0.0
2018-Feb-03 03:30N 45°32' W 122°40'0 0.0
2018-Feb-03 02:00N 45°32' W 122°40'0 0.0
2018-Feb-03 01:30N 45°32' W 122°40'0 0.0
2018-Feb-03 01:00N 45°32' W 122°40'0 0.0
2018-Feb-03 00:30N 45°32' W 122°40'0 0.0
2018-Feb-03 00:00N 45°32' W 122°40'0 0.0
2018-Feb-02 23:30N 45°32' W 122°40'0 0.0
2018-Feb-02 23:00N 45°32' W 122°40'0 0.0
2018-Feb-02 22:30N 45°32' W 122°40'0 0.0
2018-Feb-02 22:00N 45°32' W 122°40'0 0.0
2018-Feb-02 21:30N 45°32' W 122°40'0 0.0
2018-Feb-02 21:00N 45°32' W 122°40'0 0.0
2018-Feb-02 20:30N 45°32' W 122°40'0 0.0
2018-Feb-02 20:00N 45°32' W 122°40'0 0.0
2018-Feb-02 19:00N 45°32' W 122°40'0 0.0
2018-Feb-02 18:30N 45°32' W 122°40'0 0.0
2018-Feb-02 18:00N 45°32' W 122°40'0 0.0
2018-Feb-02 17:30N 45°32' W 122°40'0 0.0
2018-Feb-02 17:00N 45°32' W 122°40'0 0.0
2018-Feb-02 16:30N 45°32' W 122°40'0 0.0
2018-Feb-02 15:30N 45°32' W 122°40'0 0.0
2018-Feb-02 14:30N 45°32' W 122°40'0 0.0
2018-Feb-02 14:00N 45°32' W 122°40'0 0.0
2018-Feb-02 13:30N 45°32' W 122°40'0 0.0
2018-Feb-02 13:00N 45°32' W 122°40'0 0.0
2018-Feb-02 12:30N 45°32' W 122°40'0 0.0
2018-Feb-02 12:00N 45°32' W 122°40'0 0.0
2018-Feb-02 11:27N 45°32' W 122°40'0 0.0
2018-Feb-02 11:00N 45°32' W 122°40'0 0.0
2018-Feb-02 10:30N 45°32' W 122°40'0 0.0
2018-Feb-02 10:00N 45°32' W 122°40'0 0.0
2018-Feb-02 09:30N 45°32' W 122°40'0 0.0
2018-Feb-02 09:00N 45°32' W 122°40'0 0.0
2018-Feb-02 08:30N 45°32' W 122°40'0 0.0
2018-Feb-02 08:00N 45°32' W 122°40'0 0.0
2018-Feb-02 07:30N 45°32' W 122°40'0 0.0
2018-Feb-02 07:00N 45°32' W 122°40'0 0.0
2018-Feb-02 06:30N 45°32' W 122°40'0 0.0
2018-Feb-02 06:00N 45°32' W 122°40'0 0.0
2018-Feb-02 05:30N 45°32' W 122°40'0 0.0
2018-Feb-02 05:00N 45°32' W 122°40'0 0.0
2018-Feb-02 04:30N 45°32' W 122°40'0 0.0
2018-Feb-02 04:00N 45°32' W 122°40'0 0.0
2018-Feb-02 03:30N 45°32' W 122°40'0 0.0
2018-Feb-02 03:00N 45°32' W 122°40'0 0.0
2018-Feb-02 02:30N 45°32' W 122°40'0 0.0
2018-Feb-02 02:00N 45°32' W 122°40'0 0.0
2018-Feb-02 01:30N 45°32' W 122°40'0 0.0
2018-Feb-02 01:00N 45°32' W 122°40'0 0.0
2018-Feb-02 00:30N 45°32' W 122°40'0 0.0
2018-Feb-02 00:00N 45°32' W 122°40'0 0.0
2018-Feb-01 23:30N 45°32' W 122°40'0 0.0
2018-Feb-01 23:00N 45°32' W 122°40'0 0.0
2018-Feb-01 22:00N 45°32' W 122°40'0 0.0
2018-Feb-01 21:30N 45°32' W 122°40'0 0.0
2018-Feb-01 19:30N 45°32' W 122°40'0 0.0
2018-Feb-01 19:00N 45°32' W 122°40'0 0.0
2018-Feb-01 18:30N 45°32' W 122°40'0 0.0
2018-Feb-01 18:00N 45°32' W 122°40'0 0.0
2018-Feb-01 17:30N 45°32' W 122°40'0 0.0
2018-Feb-01 17:00N 45°32' W 122°40'0 0.0
2018-Feb-01 16:30N 45°32' W 122°40'0 0.0
2018-Feb-01 16:00N 45°32' W 122°40'0 0.0
2018-Feb-01 15:30N 45°32' W 122°40'0 0.0
2018-Feb-01 15:00N 45°32' W 122°40'0 0.0
2018-Feb-01 13:30N 45°32' W 122°40'0 0.0
2018-Feb-01 13:00N 45°32' W 122°40'0 0.0
2018-Feb-01 12:30N 45°32' W 122°40'0 0.0
2018-Feb-01 12:00N 45°32' W 122°40'0 0.0
2018-Feb-01 11:00N 45°32' W 122°40'0 0.0
2018-Feb-01 10:30N 45°32' W 122°40'0 0.0
2018-Feb-01 10:00N 45°32' W 122°40'0 0.0
2018-Feb-01 09:30N 45°32' W 122°40'0 0.0
2018-Feb-01 09:00N 45°32' W 122°40'0 0.0
2018-Feb-01 08:30N 45°32' W 122°40'0 0.0
2018-Feb-01 07:30N 45°32' W 122°40'0 0.0
2018-Feb-01 07:00N 45°32' W 122°40'0 0.0
2018-Feb-01 06:30N 45°32' W 122°40'0 0.0
2018-Feb-01 06:00N 45°32' W 122°40'0 0.0
2018-Feb-01 05:30N 45°32' W 122°40'0 0.0
2018-Feb-01 05:00N 45°32' W 122°40'0 0.0
2018-Feb-01 04:30N 45°32' W 122°40'0 0.0
2018-Feb-01 04:00N 45°32' W 122°40'0 0.0
2018-Feb-01 03:00N 45°32' W 122°40'0 0.0
2018-Feb-01 02:30N 45°32' W 122°40'0 0.0
2018-Feb-01 02:00N 45°32' W 122°40'0 0.0
2018-Feb-01 01:30N 45°32' W 122°40'0 0.0
2018-Feb-01 01:00N 45°32' W 122°40'0 0.0
2018-Feb-01 00:30N 45°32' W 122°40'0 0.0
2018-Feb-01 00:00N 45°32' W 122°40'0 0.0
2018-Jan-31 23:00N 45°32' W 122°40'0 0.0
2018-Jan-31 22:30N 45°32' W 122°40'0 0.0
2018-Jan-31 21:00N 45°32' W 122°40'0 0.0
2018-Jan-31 20:30N 45°32' W 122°40'0 0.0
2018-Jan-31 20:00N 45°32' W 122°40'0 0.0
2018-Jan-31 19:30N 45°32' W 122°40'0 0.0
2018-Jan-31 19:00N 45°32' W 122°40'0 0.0
2018-Jan-31 18:30N 45°32' W 122°40'0 0.0
2018-Jan-31 18:00N 45°32' W 122°40'0 0.0
2018-Jan-31 17:30N 45°32' W 122°40'0 0.0
2018-Jan-31 17:00N 45°32' W 122°40'0 0.0
2018-Jan-31 16:30N 45°32' W 122°40'0 0.0
2018-Jan-31 16:00N 45°32' W 122°40'0 0.0
2018-Jan-31 15:30N 45°32' W 122°40'0 0.0
2018-Jan-31 15:00N 45°32' W 122°40'0 0.0
2018-Jan-31 14:30N 45°32' W 122°40'0 0.0
2018-Jan-31 13:00N 45°32' W 122°40'0 0.0
2018-Jan-31 12:30N 45°32' W 122°40'0 0.0
2018-Jan-31 12:00N 45°32' W 122°40'0 0.0
2018-Jan-31 11:30N 45°32' W 122°40'0 0.0
2018-Jan-31 11:00N 45°32' W 122°40'0 0.0
2018-Jan-31 10:30N 45°32' W 122°40'0 0.0
2018-Jan-31 10:00N 45°32' W 122°40'0 0.0
2018-Jan-31 09:30N 45°32' W 122°40'0 0.0
2018-Jan-31 09:00N 45°32' W 122°40'0 0.0
2018-Jan-31 08:30N 45°32' W 122°40'0 0.0
2018-Jan-31 08:00N 45°32' W 122°40'0 0.0
2018-Jan-31 07:30N 45°32' W 122°40'0 0.0
2018-Jan-31 07:00N 45°32' W 122°40'0 0.0
2018-Jan-31 06:30N 45°32' W 122°40'0 0.0
2018-Jan-31 06:00N 45°32' W 122°40'0 0.0
2018-Jan-31 05:30N 45°32' W 122°40'0 0.0
2018-Jan-31 05:00N 45°32' W 122°40'0 0.0
2018-Jan-31 04:30N 45°32' W 122°40'0 0.0
2018-Jan-31 04:00N 45°32' W 122°40'0 0.0
2018-Jan-31 03:30N 45°32' W 122°40'0 0.0
2018-Jan-31 03:00N 45°32' W 122°40'0 0.0
2018-Jan-31 02:30N 45°32' W 122°40'0 0.0
2018-Jan-31 02:00N 45°32' W 122°40'0 0.0
2018-Jan-31 01:30N 45°32' W 122°40'0 0.0
2018-Jan-31 01:00N 45°32' W 122°40'0 0.0
2018-Jan-31 00:00N 45°32' W 122°40'0 0.0
2018-Jan-30 23:30N 45°32' W 122°40'0 0.0
2018-Jan-30 23:00N 45°32' W 122°40'0 0.0
2018-Jan-30 22:30N 45°32' W 122°40'0 0.0
2018-Jan-30 21:30N 45°32' W 122°40'0 0.0
2018-Jan-30 21:00N 45°32' W 122°40'0 0.0
2018-Jan-30 20:30N 45°32' W 122°40'0 0.0
2018-Jan-30 20:00N 45°32' W 122°40'0 0.0
2018-Jan-30 19:30N 45°32' W 122°40'0 0.0
2018-Jan-30 19:00N 45°32' W 122°40'0 0.0
2018-Jan-30 18:30N 45°32' W 122°40'0 0.0
2018-Jan-30 18:00N 45°32' W 122°40'0 0.0
2018-Jan-30 17:30N 45°32' W 122°40'0 0.0
2018-Jan-30 17:00N 45°32' W 122°40'0 0.0
2018-Jan-30 16:30N 45°32' W 122°40'0 0.0
2018-Jan-30 16:00N 45°32' W 122°40'0 0.0
2018-Jan-30 15:30N 45°32' W 122°40'0 0.0
2018-Jan-30 15:00N 45°32' W 122°40'0 0.0
2018-Jan-30 14:30N 45°32' W 122°40'0 0.0
2018-Jan-30 13:30N 45°32' W 122°40'0 0.0
2018-Jan-30 13:00N 45°32' W 122°40'0 0.0
2018-Jan-30 12:30N 45°32' W 122°40'0 0.0
2018-Jan-30 12:00N 45°32' W 122°40'0 0.0
2018-Jan-30 11:30N 45°32' W 122°40'0 0.0
2018-Jan-30 10:30N 45°32' W 122°40'0 0.0
2018-Jan-30 09:30N 45°32' W 122°40'0 0.0
2018-Jan-30 09:00N 45°32' W 122°40'0 0.0
2018-Jan-30 08:30N 45°32' W 122°40'0 0.0
2018-Jan-30 08:00N 45°32' W 122°40'0 0.0
2018-Jan-30 07:30N 45°32' W 122°40'0 0.0
2018-Jan-30 07:00N 45°32' W 122°40'0 0.0
2018-Jan-30 06:30N 45°32' W 122°40'0 0.0
2018-Jan-30 06:00N 45°32' W 122°40'0 0.0
2018-Jan-30 05:30N 45°32' W 122°40'0 0.0
2018-Jan-30 05:00N 45°32' W 122°40'0 0.0
2018-Jan-30 04:30N 45°32' W 122°40'0 0.0
2018-Jan-30 04:00N 45°32' W 122°40'0 0.0
2018-Jan-30 03:30N 45°32' W 122°40'0 0.0
2018-Jan-30 03:00N 45°32' W 122°40'0 0.0
2018-Jan-30 02:30N 45°32' W 122°40'0 0.0
2018-Jan-30 02:00N 45°32' W 122°40'0 0.0
2018-Jan-30 01:30N 45°32' W 122°40'0 0.0
2018-Jan-30 01:00N 45°32' W 122°40'0 0.0
2018-Jan-30 00:30N 45°32' W 122°40'0 0.0
2018-Jan-30 00:00N 45°32' W 122°40'0 0.0
2018-Jan-29 23:30N 45°32' W 122°40'0 0.0
2018-Jan-29 23:00N 45°32' W 122°40'0 0.0
2018-Jan-29 22:30N 45°32' W 122°40'0 0.0
2018-Jan-29 22:00N 45°32' W 122°40'0 0.0
2018-Jan-29 21:30N 45°32' W 122°40'0 0.0
2018-Jan-29 21:00N 45°32' W 122°40'0 0.0
2018-Jan-29 20:30N 45°32' W 122°40'0 0.0
2018-Jan-29 20:00N 45°32' W 122°40'0 0.0
2018-Jan-29 19:30N 45°32' W 122°40'0 0.0
2018-Jan-29 19:00N 45°32' W 122°40'0 0.0
2018-Jan-29 18:30N 45°32' W 122°40'0 0.0
2018-Jan-29 18:00N 45°32' W 122°40'0 0.0
2018-Jan-29 17:30N 45°32' W 122°40'0 0.0
2018-Jan-29 17:00N 45°32' W 122°40'0 0.0
2018-Jan-29 16:30N 45°32' W 122°40'0 0.0
2018-Jan-29 16:00N 45°32' W 122°40'0 0.0
2018-Jan-29 15:30N 45°32' W 122°40'0 0.0
2018-Jan-29 15:00N 45°32' W 122°40'0 0.0
2018-Jan-29 14:30N 45°32' W 122°40'0 0.0
2018-Jan-29 14:00N 45°32' W 122°40'0 0.0
2018-Jan-29 13:30N 45°32' W 122°40'0 0.0
2018-Jan-29 13:00N 45°32' W 122°40'0 0.0
2018-Jan-29 12:30N 45°32' W 122°40'0 0.0
2018-Jan-29 12:00N 45°32' W 122°40'0 0.0
2018-Jan-29 11:27N 45°32' W 122°40'0 0.0
2018-Jan-29 11:00N 45°32' W 122°40'0 0.0
2018-Jan-29 10:30N 45°32' W 122°40'0 0.0
2018-Jan-29 10:00N 45°32' W 122°40'0 0.0
2018-Jan-29 09:30N 45°32' W 122°40'0 0.0
2018-Jan-29 09:00N 45°32' W 122°40'0 0.0
2018-Jan-29 08:30N 45°32' W 122°40'0 0.0
2018-Jan-29 08:00N 45°32' W 122°40'0 0.0
2018-Jan-29 07:30N 45°32' W 122°40'0 0.0
2018-Jan-29 07:00N 45°32' W 122°40'0 0.0
2018-Jan-29 06:30N 45°32' W 122°40'0 0.0
2018-Jan-29 06:00N 45°32' W 122°40'0 0.0
2018-Jan-29 05:30N 45°32' W 122°40'0 0.0
2018-Jan-29 05:00N 45°32' W 122°40'0 0.6
2018-Jan-29 04:30N 45°32' W 122°40'3 5.9
2018-Jan-29 04:00N 45°34' W 122°44'4 7.8
2018-Jan-29 03:30N 45°37' W 122°47'4 7.3
2018-Jan-29 03:00N 45°40' W 122°46'1 1.4
2018-Jan-29 02:30N 45°41' W 122°46'0 0.0
2018-Jan-29 01:57N 45°41' W 122°46'0 0.0
2018-Jan-29 01:30N 45°41' W 122°46'0 0.0
2018-Jan-29 01:00N 45°41' W 122°46'0 0.0
2018-Jan-29 00:30N 45°41' W 122°46'0 0.0
2018-Jan-29 00:00N 45°41' W 122°46'0 0.0
2018-Jan-28 23:30N 45°41' W 122°46'0 0.0
2018-Jan-28 23:00N 45°41' W 122°46'0 0.0
2018-Jan-28 22:30N 45°41' W 122°46'0 0.0
2018-Jan-28 22:00N 45°41' W 122°46'0 0.0
2018-Jan-28 21:30N 45°41' W 122°46'0 0.0
2018-Jan-28 21:00N 45°41' W 122°46'0 0.0
2018-Jan-28 20:30N 45°41' W 122°46'0 0.0
2018-Jan-28 20:00N 45°41' W 122°46'0 0.0
2018-Jan-28 19:30N 45°41' W 122°46'0 0.0
2018-Jan-28 19:00N 45°41' W 122°46'0 0.0
2018-Jan-28 18:30N 45°41' W 122°46'0 0.0
2018-Jan-28 18:00N 45°41' W 122°46'0 0.0
2018-Jan-28 17:30N 45°41' W 122°46'0 0.0
2018-Jan-28 17:00N 45°41' W 122°46'0 0.0
2018-Jan-28 16:30N 45°41' W 122°46'0 0.0
2018-Jan-28 16:00N 45°41' W 122°46'0 0.0
2018-Jan-28 15:30N 45°41' W 122°46'0 0.0
2018-Jan-28 15:00N 45°41' W 122°46'0 0.0
2018-Jan-28 14:30N 45°41' W 122°46'0 0.0
2018-Jan-28 14:00N 45°41' W 122°46'0 0.0
2018-Jan-28 13:30N 45°41' W 122°46'0 0.0
2018-Jan-28 13:00N 45°41' W 122°46'0 0.0
2018-Jan-28 12:30N 45°41' W 122°46'0 0.0
2018-Jan-28 12:00N 45°41' W 122°46'0 0.0
2018-Jan-28 11:30N 45°41' W 122°46'0 0.0
2018-Jan-28 11:00N 45°41' W 122°46'0 0.0
2018-Jan-28 10:30N 45°41' W 122°46'0 0.0
2018-Jan-28 09:57N 45°41' W 122°46'0 0.0
2018-Jan-28 09:30N 45°41' W 122°46'0 0.0
2018-Jan-28 09:00N 45°41' W 122°46'0 0.0
2018-Jan-28 08:30N 45°41' W 122°46'0 0.0
2018-Jan-28 08:00N 45°41' W 122°46'0 0.0
2018-Jan-28 07:30N 45°41' W 122°46'0 0.0
2018-Jan-28 07:00N 45°41' W 122°46'0 0.0
2018-Jan-28 06:30N 45°41' W 122°46'0 0.0
2018-Jan-28 06:00N 45°41' W 122°46'0 0.0
2018-Jan-28 05:30N 45°41' W 122°46'0 0.0
2018-Jan-28 05:00N 45°41' W 122°46'0 0.0
2018-Jan-28 04:30N 45°41' W 122°46'0 0.0
2018-Jan-28 04:00N 45°41' W 122°46'0 0.0
2018-Jan-28 03:30N 45°41' W 122°46'0 0.0
2018-Jan-28 03:00N 45°41' W 122°46'0 0.0
2018-Jan-28 02:30N 45°41' W 122°46'0 0.0
2018-Jan-28 02:00N 45°41' W 122°46'0 0.0
2018-Jan-28 01:30N 45°41' W 122°46'0 0.0
2018-Jan-28 01:00N 45°41' W 122°46'0 0.0
2018-Jan-28 00:30N 45°41' W 122°46'0 0.0
2018-Jan-28 00:00N 45°41' W 122°46'0 0.0
2018-Jan-27 23:30N 45°41' W 122°46'0 0.0
2018-Jan-27 23:00N 45°41' W 122°46'0 0.0
2018-Jan-27 22:30N 45°41' W 122°46'0 0.0
2018-Jan-27 22:00N 45°41' W 122°46'0 0.0
2018-Jan-27 21:30N 45°41' W 122°46'0 0.0
2018-Jan-27 21:00N 45°41' W 122°46'0 0.0
2018-Jan-27 20:30N 45°41' W 122°46'0 0.0
2018-Jan-27 20:00N 45°41' W 122°46'0 0.0
2018-Jan-27 19:30N 45°41' W 122°46'0 0.0
2018-Jan-27 19:00N 45°41' W 122°46'0 0.0
2018-Jan-27 18:30N 45°41' W 122°46'0 0.0
2018-Jan-27 18:00N 45°41' W 122°46'0 0.0
2018-Jan-27 17:30N 45°41' W 122°46'0 0.0
2018-Jan-27 17:00N 45°41' W 122°46'0 0.0
2018-Jan-27 16:30N 45°41' W 122°46'0 0.0
2018-Jan-27 16:00N 45°41' W 122°46'0 0.0
2018-Jan-27 15:30N 45°41' W 122°46'0 0.0
2018-Jan-27 15:00N 45°41' W 122°46'0 0.0
2018-Jan-27 14:30N 45°41' W 122°46'0 0.0
2018-Jan-27 14:00N 45°41' W 122°46'0 0.0
2018-Jan-27 13:30N 45°41' W 122°46'0 0.0
2018-Jan-27 13:00N 45°41' W 122°46'0 0.0
2018-Jan-27 12:30N 45°41' W 122°46'0 0.0
2018-Jan-27 12:00N 45°41' W 122°46'0 0.0
2018-Jan-27 11:30N 45°41' W 122°46'0 0.0
2018-Jan-27 11:00N 45°41' W 122°46'0 0.0
2018-Jan-27 10:30N 45°41' W 122°46'0 0.0
2018-Jan-27 10:00N 45°41' W 122°46'0 0.0
2018-Jan-27 09:30N 45°41' W 122°46'0 0.9
2018-Jan-27 09:00N 45°42' W 122°46'4 7.4
2018-Jan-27 08:30N 45°45' W 122°46'511.0
2018-Jan-27 08:00N 45°51' W 122°47'511.0
2018-Jan-27 07:30N 45°56' W 122°48'510.9
2018-Jan-27 07:00N 46°01' W 122°52'5 9.4
2018-Jan-27 06:30N 46°05' W 122°55'510.2
2018-Jan-27 06:00N 46°08' W 123°01'611.5
2018-Jan-27 05:30N 46°11' W 123°08'611.3
2018-Jan-27 05:00N 46°09' W 123°15'611.5
2018-Jan-27 04:30N 46°09' W 123°24'811.1
2018-Jan-27 03:47N 46°16' W 123°29'412.7
2018-Jan-27 03:31N 46°15' W 123°34'612.7
2018-Jan-27 03:00N 46°14' W 123°43'611.1
2018-Jan-27 02:31N 46°12' W 123°50'911.7
2018-Jan-27 01:46N 46°15' W 124°01'312.2
2018-Jan-27 01:31N 46°15' W 124°06'612.5
2018-Jan-27 01:00N 46°12' W 124°14'4 8.5
2018-Jan-27 00:30N 46°11' W 124°20'710.7
2018-Jan-26 23:53N 46°11' W 124°29'512.1
2018-Jan-26 23:30N 46°11' W 124°36'612.0
2018-Jan-26 23:00N 46°11' W 124°45'612.1
2018-Jan-26 22:30N 46°11' W 124°53'712.3
2018-Jan-26 21:57N 46°11' W 125°03'512.2
2018-Jan-26 21:30N 46°11' W 125°11'612.1
2018-Jan-26 21:00N 46°11' W 125°20'612.1
2018-Jan-26 20:30N 46°12' W 125°28'611.9
2018-Jan-26 20:00N 46°12' W 125°37'  

Dump ship's entire track history